aviador You're here:

PARC Decoded Metar

ARCTIC VILLAGE in AK, USA
Report Time2018-06-18 04:56:00
UTC Time2018-06-18 05:44:37
Flight Rules vfr VFR
Wind180° at 05 kt
W.Decomp.*RWY 20: 3.5 kt HW 3.6 kt LCW
W.Rank180° ranks 29
Current wind is above 180° avg. (4.8)
Visibility9999 m
Phenomena:N/A
Clouds:Broken 050 Hf
Expected CloudBase > 3,200 ft AGL from Temp-Dew spread
Ceiling5,000 ft
Temp12°C (ISA +1)
Dew Point04°C (58% RH)
AAT8.9°C
QNH1008 hPa
Density Alt2,510 ft
Elevation2,087 ft
Report Wrong Elevation
Raw Report
PARC 180456Z AUTO 18005KT 10SM BKN050 12/04 A2978 RMK AO2 SLP111
T01170044=

Extra information for PARC:More info

Airport Information Weather charts Add Link Nearby Venues Social comments

AIRNAV info for PARC